5632 Weather Reports


Display with metric or nautical units.
time (UTC)temp
F
wind
direction
speed
MPH
gust
MPH
rain 1hr
in
rain 24hr
in
rain mn
in
humidity
%
barometer
mb
20210928001557 79 187 0.0 0.0 0.00 0.00 0.00 72 1009.3
20210928000044 82 187 0.0 0.0 0.00 0.00 0.00 67 1009.3
20210927234526 84 187 0.0 0.0 0.00 0.00 0.00 62 1009.4
20210927233006 87 187 0.0 0.0 0.00 0.00 0.00 60 1009.4
20210927231553 84 142 0.0 0.0 0.00 0.00 0.00 62 1009.5
20210927230010 85 140 1.0 0.0 0.00 0.00 0.00 61 1009.5
20210927224652 86 129 1.0 0.0 0.00 0.00 0.00 57 1009.5
20210927223126 86 236 2.0 0.0 0.00 0.00 0.00 56 1009.5
20210927221625 87 132 2.0 0.0 0.00 0.00 0.00 54 1009.6
20210927220210 89 107 2.0 0.0 0.00 0.00 0.00 53 1009.7
20210927214517 88 128 3.0 0.0 0.00 0.00 0.00 52 1009.8
20210927213006 87 182 3.0 0.0 0.00 0.00 0.00 52 1010.0
20210927211701 88 206 2.0 0.0 0.00 0.00 0.00 54 1010.0
20210927210055 88 229 3.0 0.0 0.00 0.00 0.00 53 1010.3
20210927204616 87 125 2.0 0.0 0.00 0.00 0.00 54 1010.5
20210927181551 87 151 3.0 0.0 0.00 0.00 0.00 57 1012.6
20210927174557 86 134 1.0 0.0 0.00 0.00 0.00 59 1012.9
20210927173010 84 161 1.0 0.0 0.00 0.00 0.00 64 1013.1
20210927170147 84 172 2.0 0.0 0.00 0.00 0.00 61 1013.2
20210927164659 83 71 2.0 0.0 0.00 0.00 0.00 65 1013.5
20210927163040 82 319 1.0 0.0 0.00 0.00 0.00 64 1013.7
20210927161502 82 193 1.0 0.0 0.00 0.00 0.00 63 1013.7
20210927160059 81 224 1.0 0.0 0.00 0.00 0.00 69 1013.7
20210927154644 79 283 1.0 0.0 0.00 0.00 0.00 69 1013.8
20210927153119 78 186 1.0 0.0 0.00 0.00 0.00 76 1013.8
20210927151654 76 126 1.0 0.0 0.00 0.00 0.00 76 1013.6
20210927150144 76 159 0.0 0.0 0.00 0.00 0.00 80 1013.6
20210927144539 73 186 0.0 0.0 0.00 0.00 0.00 84 1013.5
20210927143326 73 155 0.0 0.0 0.00 0.00 0.00 83 1013.5
20210927141550 72 101 0.0 0.0 0.00 0.00 0.00 85 1013.4
20210927140029 72 140 1.0 0.0 0.00 0.00 0.00 86 1013.3
20210927134645 70 138 0.0 0.0 0.00 0.00 0.00 93 1013.3
20210927131534 65 292 0.0 0.0 0.00 0.00 0.00 97 1013.4
20210927130112 63 292 0.0 0.0 0.00 0.00 0.00 97 1013.4
20210927124548 60 292 0.0 0.0 0.00 0.00 0.00 97 1013.3
20210927123116 59 292 0.0 0.0 0.00 0.00 0.00 96 1013.4
20210927121627 59 292 0.0 0.0 0.00 0.00 0.00 96 1013.3
20210927120122 59 292 0.0 0.0 0.00 0.00 0.00 97 1013.1
20210927114534 59 292 0.0 0.0 0.00 0.00 0.00 96 1013.2
20210927113008 59 292 0.0 0.0 0.00 0.00 0.00 96 1012.9
20210927111643 59 292 0.0 0.0 0.00 0.00 0.00 96 1012.8
20210927111502 59 292 0.0 0.0 0.00 0.00 0.00 96 1012.8
20210927110207 59 292 0.0 0.0 0.00 0.00 0.00 96 1012.9
20210927104609 59 292 0.0 0.0 0.00 0.00 0.00 96 1013.0
20210927103023 59 292 0.0 0.0 0.00 0.00 0.00 96 1013.0
20210927100056 60 292 0.0 0.0 0.00 0.00 0.00 96 1013.1
20210927094522 61 292 0.0 0.0 0.00 0.00 0.00 96 1013.0
20210927093146 61 292 0.0 0.0 0.00 0.00 0.00 96 1013.0
20210927090102 61 292 0.0 0.0 0.00 0.00 0.00 96 1013.1
20210927084655 60 292 0.0 0.0 0.00 0.00 0.00 96 1013.1
20210927083039 59 292 0.0 0.0 0.00 0.00 0.00 96 1013.2
20210927081501 59 292 0.0 0.0 0.00 0.00 0.00 96 1013.2
20210927080115 59 292 0.0 0.0 0.00 0.00 0.00 96 1013.2
20210927074523 58 292 0.0 0.0 0.00 0.00 0.00 95 1013.2
20210927073215 58 292 0.0 0.0 0.00 0.00 0.00 95 1013.2
20210927071604 59 292 0.0 0.0 0.00 0.00 0.00 95 1013.2
20210927070108 59 292 0.0 0.0 0.00 0.00 0.00 94 1013.2
20210927064624 59 292 0.0 0.0 0.00 0.00 0.00 94 1013.2
20210927063054 59 292 0.0 0.0 0.00 0.00 0.00 94 1013.2
20210927061644 59 292 0.0 0.0 0.00 0.00 0.00 93 1013.2
20210927060120 59 292 0.0 0.0 0.00 0.00 0.00 93 1013.2
20210927053214 60 292 0.0 0.0 0.00 0.00 0.00 91 1013.2
20210927050302 61 292 0.0 0.0 0.00 0.00 0.01 90 1013.3
20210927044548 61 292 0.0 0.0 0.00 0.00 0.01 90 1013.3
20210927043023 61 292 0.0 0.0 0.00 0.00 0.01 89 1013.4
20210927041624 62 292 0.0 0.0 0.00 0.00 0.01 88 1013.3
20210927040019 63 292 0.0 0.0 0.00 0.00 0.01 87 1013.3
20210927034510 63 292 0.0 0.0 0.00 0.00 0.01 86 1013.2
20210927033102 63 292 0.0 0.0 0.00 0.00 0.01 87 1013.3
20210927031608 63 292 0.0 0.0 0.00 0.00 0.01 86 1013.3
20210927024559 65 292 0.0 0.0 0.00 0.00 0.01 82 1013.1
20210927023143 66 157 0.0 0.0 0.00 0.00 0.01 79 1012.9
20210927021612 68 128 0.0 0.0 0.00 0.00 0.01 77 1013.0
20210927013148 69 138 0.0 0.0 0.00 0.00 0.01 75 1012.7
20210927011546 69 156 0.0 0.0 0.00 0.00 0.01 75 1012.7
20210927010034 69 157 0.0 0.0 0.00 0.00 0.01 73 1012.6